Time;durP1;ratioP1;P1;durP2;ratioP2;P2;SDS_P1;SDS_P2;PMS_P1;PMS_P2;Temp;Humidity;BMP_temperature;BMP_pressure;BME280_temperature;BME280_humidity;BME280_pressure;Samples;Min_cycle;Max_cycle;Signal;HPM_P1;HPM_P2
2022/10/15 00:00:34;;;;;;;10.40;7.57;;;15.10;99.90;;;;;;5081480;28;20471;-83
2022/10/15 00:03:01;;;;;;;11.50;8.60;;;15.10;99.90;;;;;;5083759;28;20490;-83
2022/10/15 00:05:28;;;;;;;9.60;8.10;;;15.10;99.90;;;;;;5086496;28;20453;-83
2022/10/15 00:07:55;;;;;;;10.40;9.07;;;15.00;99.90;;;;;;5087466;28;20518;-82
2022/10/15 00:10:22;;;;;;;8.90;7.80;;;15.00;99.90;;;;;;5084567;28;20534;-82
2022/10/15 00:12:49;;;;;;;12.17;8.47;;;15.00;99.90;;;;;;5084517;28;20461;-83
2022/10/15 00:15:16;;;;;;;10.30;7.67;;;15.00;99.90;;;;;;5084359;28;20546;-84
2022/10/15 00:17:44;;;;;;;9.60;8.33;;;15.00;99.90;;;;;;5083582;28;20466;-81
2022/10/15 00:20:11;;;;;;;9.17;6.93;;;14.90;99.90;;;;;;5084473;28;20468;-84
2022/10/15 00:22:38;;;;;;;9.90;7.80;;;14.90;99.90;;;;;;5073332;28;20480;-85
2022/10/15 00:25:06;;;;;;;9.33;7.73;;;14.90;99.90;;;;;;5077041;28;20538;-85
2022/10/15 00:27:34;;;;;;;9.83;8.00;;;14.90;99.90;;;;;;5092685;28;20455;-85
2022/10/15 00:30:02;;;;;;;11.20;7.57;;;14.80;99.90;;;;;;5094837;28;20469;-84
2022/10/15 00:32:29;;;;;;;9.47;7.57;;;14.80;99.90;;;;;;5095864;28;20474;-84
2022/10/15 00:34:57;;;;;;;11.40;7.73;;;14.80;99.90;;;;;;5089780;28;20541;-84
2022/10/15 00:37:24;;;;;;;10.83;7.97;;;14.80;99.90;;;;;;5089801;28;20448;-84
2022/10/15 00:39:51;;;;;;;10.43;7.73;;;14.80;99.90;;;;;;5088486;28;21039;-85
2022/10/15 00:42:18;;;;;;;7.90;7.13;;;14.80;99.90;;;;;;5087974;28;20541;-83
2022/10/15 00:44:51;;;;;;;8.27;7.43;;;14.70;99.90;;;;;;5088389;28;20572;-82
2022/10/15 00:47:23;;;;;;;9.00;7.73;;;14.70;99.90;;;;;;5087970;28;20485;-83
2022/10/15 00:49:58;;;;;;;8.93;7.73;;;14.70;99.90;;;;;;5087249;28;20484;-83
2022/10/15 00:52:30;;;;;;;10.13;7.77;;;14.70;99.90;;;;;;5088599;28;20477;-83
2022/10/15 00:55:02;;;;;;;8.23;7.40;;;14.70;99.90;;;;;;5076581;28;20466;-83
2022/10/15 00:57:32;;;;;;;10.53;7.60;;;14.70;99.90;;;;;;5062524;28;20581;-83
2022/10/15 01:00:02;;;;;;;8.27;7.47;;;14.70;99.90;;;;;;5079223;28;20520;-82
2022/10/15 01:02:29;;;;;;;7.33;6.63;;;14.70;99.90;;;;;;5097141;28;20502;-84
2022/10/15 01:04:56;;;;;;;10.60;7.17;;;14.70;99.90;;;;;;5090587;28;20485;-83
2022/10/15 01:07:24;;;;;;;9.13;7.93;;;14.70;99.90;;;;;;5079600;28;20952;-83
2022/10/15 01:09:51;;;;;;;9.80;7.70;;;14.70;99.90;;;;;;5079134;28;20478;-81
2022/10/15 01:12:28;;;;;;;12.17;7.23;;;14.70;99.90;;;;;;5080648;28;20480;-81
2022/10/15 01:15:01;;;;;;;10.83;8.60;;;14.70;99.90;;;;;;5081765;28;20454;-82
2022/10/15 01:17:34;;;;;;;8.30;7.33;;;14.60;99.90;;;;;;5081769;28;20453;-82
2022/10/15 01:20:31;;;;;;;8.20;7.20;;;14.70;99.90;;;;;;5081319;28;20479;-82
2022/10/15 01:23:26;;;;;;;10.10;7.80;;;14.60;99.90;;;;;;5063510;28;20460;-82
2022/10/15 01:26:07;;;;;;;10.07;8.27;;;14.60;99.90;;;;;;5075912;28;20889;-82
2022/10/15 01:28:46;;;;;;;12.23;7.90;;;14.60;99.90;;;;;;5083799;28;20478;-83
2022/10/15 01:31:22;;;;;;;8.83;7.07;;;14.60;99.90;;;;;;5082223;28;20470;-82
2022/10/15 01:33:54;;;;;;;9.70;8.43;;;14.50;99.90;;;;;;5084548;28;20457;-82
2022/10/15 01:36:30;;;;;;;9.20;6.97;;;14.50;99.90;;;;;;5085613;28;20464;-82
2022/10/15 01:39:00;;;;;;;8.93;7.40;;;14.50;99.90;;;;;;5085465;28;20522;-82
2022/10/15 01:41:33;;;;;;;8.13;7.00;;;14.50;99.90;;;;;;5083834;28;20980;-83
2022/10/15 01:44:04;;;;;;;10.30;7.17;;;14.50;99.90;;;;;;5083493;28;20488;-83
2022/10/15 01:46:38;;;;;;;10.33;7.53;;;14.50;99.90;;;;;;5082184;28;20517;-82
2022/10/15 01:49:08;;;;;;;8.63;7.00;;;14.50;99.90;;;;;;5081927;28;21097;-82
2022/10/15 01:51:37;;;;;;;9.70;7.27;;;14.50;99.90;;;;;;5082452;28;20446;-82
2022/10/15 01:54:07;;;;;;;9.23;8.07;;;14.50;99.90;;;;;;5082209;28;20972;-82
2022/10/15 01:56:36;;;;;;;8.43;6.73;;;14.50;99.90;;;;;;5081323;28;20449;-81
2022/10/15 01:59:05;;;;;;;9.33;7.63;;;14.60;99.90;;;;;;5081921;28;20443;-82
2022/10/15 02:01:33;;;;;;;8.77;7.07;;;14.60;99.90;;;;;;5080620;28;20529;-81
2022/10/15 02:04:00;;;;;;;8.73;7.43;;;14.60;99.90;;;;;;5061661;28;20526;-82
2022/10/15 02:06:30;;;;;;;7.17;5.97;;;14.60;99.90;;;;;;5079267;28;20454;-82
2022/10/15 02:09:08;;;;;;;10.77;7.93;;;14.60;99.90;;;;;;5079569;28;20450;-80
2022/10/15 02:11:48;;;;;;;8.57;6.90;;;14.60;99.90;;;;;;5079832;28;20457;-83
2022/10/15 02:14:20;;;;;;;9.33;7.10;;;14.60;99.90;;;;;;5074767;28;20438;-83
2022/10/15 02:16:56;;;;;;;8.30;6.83;;;14.60;99.90;;;;;;5078543;28;20455;-82
2022/10/15 02:19:30;;;;;;;9.00;8.10;;;14.60;99.90;;;;;;5077711;28;20450;-83
2022/10/15 02:22:03;;;;;;;12.97;10.20;;;14.70;99.90;;;;;;5058930;28;20543;-81
2022/10/15 02:24:34;;;;;;;9.77;8.77;;;14.70;99.90;;;;;;5059757;28;20483;-81
2022/10/15 02:27:03;;;;;;;10.40;9.40;;;14.80;99.90;;;;;;5061094;28;20445;-83
2022/10/15 02:29:34;;;;;;;9.63;8.03;;;14.70;99.90;;;;;;5078449;28;20489;-82
2022/10/15 02:32:04;;;;;;;11.60;8.43;;;14.70;99.90;;;;;;5074340;28;20457;-83
2022/10/15 02:34:34;;;;;;;9.50;8.30;;;14.70;99.90;;;;;;5082436;28;20444;-83
2022/10/15 02:37:03;;;;;;;10.57;9.47;;;14.80;99.90;;;;;;5083274;28;20454;-83
2022/10/15 02:39:30;;;;;;;8.93;8.03;;;14.80;99.90;;;;;;5078260;28;20558;-82
2022/10/15 02:41:58;;;;;;;11.27;8.83;;;14.80;99.90;;;;;;5078045;28;20450;-83
2022/10/15 02:44:24;;;;;;;10.33;9.33;;;14.80;99.90;;;;;;5078897;28;20988;-84
2022/10/15 02:46:51;;;;;;;8.60;7.70;;;14.80;99.90;;;;;;5079332;28;20943;-84
2022/10/15 02:49:19;;;;;;;10.10;8.87;;;14.80;99.90;;;;;;5077441;28;20454;-82
2022/10/15 02:51:46;;;;;;;10.93;9.77;;;14.90;99.90;;;;;;5079915;28;20448;-83
2022/10/15 02:54:13;;;;;;;10.10;9.10;;;14.90;99.90;;;;;;5079048;28;20553;-83
2022/10/15 02:56:40;;;;;;;12.43;10.63;;;14.90;99.90;;;;;;5079486;28;20997;-83
2022/10/15 02:59:06;;;;;;;10.63;9.53;;;14.90;99.90;;;;;;5078445;28;20461;-83
2022/10/15 03:01:34;;;;;;;11.07;9.83;;;14.90;99.90;;;;;;5083239;28;20455;-83
2022/10/15 03:04:01;;;;;;;12.73;9.60;;;14.90;99.90;;;;;;5082779;28;20518;-83
2022/10/15 03:06:29;;;;;;;9.83;8.83;;;14.90;99.90;;;;;;5083437;28;20519;-84
2022/10/15 03:08:56;;;;;;;11.27;8.87;;;14.90;99.90;;;;;;5082278;28;20513;-82
2022/10/15 03:11:23;;;;;;;12.10;10.90;;;14.90;99.90;;;;;;5084667;28;20465;-82
2022/10/15 03:13:49;;;;;;;12.10;10.73;;;14.90;99.90;;;;;;5095378;28;20428;-83
2022/10/15 03:16:16;;;;;;;13.60;11.50;;;14.90;99.90;;;;;;5086033;28;20553;-83
2022/10/15 03:18:43;;;;;;;13.20;10.80;;;14.80;99.90;;;;;;5082173;28;20475;-82
2022/10/15 03:21:10;;;;;;;17.23;12.13;;;14.80;99.90;;;;;;5082948;28;20552;-82
2022/10/15 03:23:39;;;;;;;12.77;10.67;;;14.80;99.90;;;;;;5079828;28;20529;-84
2022/10/15 03:26:06;;;;;;;24.03;14.70;;;14.80;99.90;;;;;;5078571;28;20472;-83
2022/10/15 03:28:33;;;;;;;14.77;12.43;;;14.80;99.90;;;;;;5080330;28;20829;-83
2022/10/15 03:30:59;;;;;;;16.17;12.73;;;14.80;99.90;;;;;;5082748;28;20478;-83
2022/10/15 03:33:27;;;;;;;15.33;12.43;;;14.80;99.90;;;;;;5087967;28;20515;-83
2022/10/15 03:35:54;;;;;;;15.87;12.40;;;14.80;99.90;;;;;;5083743;28;20493;-82
2022/10/15 03:38:20;;;;;;;17.80;13.40;;;14.80;99.90;;;;;;5083512;28;20449;-81
2022/10/15 03:40:49;;;;;;;14.57;12.90;;;14.70;99.90;;;;;;5088515;28;20465;-83
2022/10/15 03:43:15;;;;;;;15.90;12.23;;;14.70;99.90;;;;;;5086209;28;20458;-83
2022/10/15 03:45:42;;;;;;;13.30;10.73;;;14.70;99.90;;;;;;5086885;28;20482;-81
2022/10/15 03:48:09;;;;;;;14.87;12.40;;;14.60;99.90;;;;;;5082968;28;20455;-83
2022/10/15 03:50:36;;;;;;;17.10;12.43;;;14.50;99.90;;;;;;5087883;28;20482;-82
2022/10/15 03:53:04;;;;;;;15.60;11.70;;;14.50;99.90;;;;;;5088836;28;20439;-83
2022/10/15 03:55:31;;;;;;;14.70;11.37;;;14.50;99.90;;;;;;5097394;22;20506;-82
2022/10/15 03:57:59;;;;;;;15.70;11.33;;;14.40;99.90;;;;;;5057231;28;20454;-82
2022/10/15 04:00:26;;;;;;;15.37;12.77;;;14.40;99.90;;;;;;5058765;28;20991;-79
2022/10/15 04:02:53;;;;;;;14.23;12.63;;;14.40;99.90;;;;;;5059261;28;20850;-81
2022/10/15 04:05:20;;;;;;;13.97;12.37;;;14.30;99.90;;;;;;5058834;28;20564;-80
2022/10/15 04:07:47;;;;;;;15.00;11.80;;;14.30;99.90;;;;;;5059066;28;20555;-81
2022/10/15 04:10:14;;;;;;;16.50;14.10;;;14.20;99.90;;;;;;5064471;28;20454;-81
2022/10/15 04:12:41;;;;;;;18.83;14.40;;;14.20;99.90;;;;;;5059082;28;20951;-79
2022/10/15 04:15:09;;;;;;;13.87;12.10;;;14.10;99.90;;;;;;5058547;28;20483;-81
2022/10/15 04:17:36;;;;;;;17.30;13.20;;;14.10;99.90;;;;;;5058856;28;20454;-80
2022/10/15 04:20:03;;;;;;;15.40;12.87;;;14.00;99.90;;;;;;5060380;28;20470;-80
2022/10/15 04:22:30;;;;;;;14.73;12.77;;;14.00;99.90;;;;;;5060571;28;20452;-82
2022/10/15 04:24:57;;;;;;;16.10;12.50;;;14.00;99.90;;;;;;5058819;28;20495;-82
2022/10/15 04:27:24;;;;;;;16.20;13.73;;;14.00;99.90;;;;;;5058158;28;20532;-81
2022/10/15 04:29:51;;;;;;;17.87;13.20;;;14.00;99.90;;;;;;5057646;28;20918;-80
2022/10/15 04:32:19;;;;;;;15.63;13.13;;;14.00;99.90;;;;;;5058682;28;20550;-80
2022/10/15 04:34:47;;;;;;;18.60;15.00;;;14.00;99.90;;;;;;5042077;28;20468;-81
2022/10/15 04:37:14;;;;;;;17.43;14.33;;;14.00;99.90;;;;;;5057158;28;20979;-79
2022/10/15 04:39:40;;;;;;;16.10;13.23;;;14.00;99.90;;;;;;5056476;28;20452;-79
2022/10/15 04:42:07;;;;;;;17.67;14.80;;;14.00;99.90;;;;;;5057242;28;20466;-80
2022/10/15 04:44:34;;;;;;;15.60;13.33;;;14.00;99.90;;;;;;5057871;28;20494;-78
2022/10/15 04:47:01;;;;;;;17.60;14.13;;;14.00;99.90;;;;;;5051337;28;20449;-81
2022/10/15 04:49:30;;;;;;;16.00;14.30;;;14.10;99.90;;;;;;5058129;28;20460;-79
2022/10/15 04:51:56;;;;;;;17.70;15.13;;;14.10;99.90;;;;;;5058094;28;20455;-82
2022/10/15 04:54:23;;;;;;;25.40;18.40;;;14.10;99.90;;;;;;5058694;28;20464;-80
2022/10/15 04:56:50;;;;;;;19.43;16.70;;;14.10;99.90;;;;;;5058269;28;20454;-81
2022/10/15 04:59:17;;;;;;;22.80;16.50;;;14.10;99.90;;;;;;5057799;28;20457;-79
2022/10/15 05:01:43;;;;;;;25.13;20.43;;;14.20;99.90;;;;;;5058891;28;20626;-82
2022/10/15 05:04:11;;;;;;;20.50;17.17;;;14.10;99.90;;;;;;5059041;28;20458;-81
2022/10/15 05:06:40;;;;;;;20.63;16.30;;;14.20;99.90;;;;;;5058867;28;20448;-82
2022/10/15 05:09:07;;;;;;;20.73;16.60;;;14.20;99.90;;;;;;5058051;28;20481;-80
2022/10/15 05:11:36;;;;;;;23.80;17.73;;;14.20;99.90;;;;;;5052915;28;20455;-82
2022/10/15 05:14:04;;;;;;;22.60;17.20;;;14.30;99.90;;;;;;5038937;28;20457;-82
2022/10/15 05:16:31;;;;;;;21.20;17.37;;;14.30;99.90;;;;;;5050718;28;20468;-83
2022/10/15 05:19:00;;;;;;;22.00;18.30;;;14.30;99.90;;;;;;5059085;28;20454;-83
2022/10/15 05:21:27;;;;;;;23.77;17.90;;;14.30;99.90;;;;;;5059476;28;20918;-81
2022/10/15 05:23:55;;;;;;;21.60;18.87;;;14.30;99.90;;;;;;5058581;28;20885;-83
2022/10/15 05:26:24;;;;;;;21.00;17.07;;;14.30;99.90;;;;;;5058757;28;20496;-83
2022/10/15 05:28:52;;;;;;;21.00;18.00;;;14.30;99.90;;;;;;5058799;28;20454;-80
2022/10/15 05:31:23;;;;;;;22.47;18.60;;;14.30;99.90;;;;;;5059310;28;20451;-80
2022/10/15 05:33:51;;;;;;;21.53;19.23;;;14.30;99.90;;;;;;5058815;28;20440;-82
2022/10/15 05:36:20;;;;;;;20.33;18.13;;;14.30;99.90;;;;;;5058894;28;20471;-82
2022/10/15 05:38:47;;;;;;;20.10;17.77;;;14.30;99.90;;;;;;5059164;28;20451;-81
2022/10/15 05:41:16;;;;;;;19.77;17.40;;;14.30;99.90;;;;;;5058916;28;20452;-82
2022/10/15 05:43:42;;;;;;;23.13;18.83;;;14.30;99.90;;;;;;5058614;28;20540;-81
2022/10/15 05:46:09;;;;;;;21.10;18.30;;;14.30;99.90;;;;;;5059051;28;20492;-82
2022/10/15 05:48:36;;;;;;;23.70;19.70;;;14.30;99.90;;;;;;5058749;28;20834;-82
2022/10/15 05:51:04;;;;;;;19.87;16.97;;;14.20;99.90;;;;;;5057846;28;20451;-82
2022/10/15 05:53:31;;;;;;;20.90;18.60;;;14.20;99.90;;;;;;5057744;28;20462;-82
2022/10/15 05:55:58;;;;;;;20.07;17.20;;;14.20;99.90;;;;;;5057476;28;20480;-81
2022/10/15 05:58:28;;;;;;;21.73;18.50;;;14.10;99.90;;;;;;5057194;28;20986;-83
2022/10/15 06:00:56;;;;;;;20.70;17.50;;;14.10;99.90;;;;;;5037751;28;20684;-82
2022/10/15 06:03:23;;;;;;;22.10;17.50;;;14.10;99.90;;;;;;5045769;28;20464;-82
2022/10/15 06:05:50;;;;;;;20.80;18.23;;;14.10;99.90;;;;;;5056592;28;20485;-82
2022/10/15 06:08:17;;;;;;;25.40;19.73;;;14.10;99.90;;;;;;5057320;28;20459;-81
2022/10/15 06:10:44;;;;;;;21.90;18.97;;;14.10;99.90;;;;;;5057897;28;20448;-82
2022/10/15 06:13:11;;;;;;;23.63;19.53;;;14.10;99.90;;;;;;5057467;28;20539;-81
2022/10/15 06:15:41;;;;;;;22.50;17.40;;;14.20;99.90;;;;;;5058026;28;20475;-80
2022/10/15 06:18:08;;;;;;;20.70;17.70;;;14.20;99.90;;;;;;5058243;28;20462;-81
2022/10/15 06:20:36;;;;;;;23.30;19.40;;;14.20;99.90;;;;;;5058125;28;20521;-81
2022/10/15 06:23:04;;;;;;;19.70;17.60;;;14.20;99.90;;;;;;5055016;28;20455;-83
2022/10/15 06:25:33;;;;;;;26.00;19.03;;;14.30;99.90;;;;;;5061245;28;20582;-82
2022/10/15 06:28:05;;;;;;;28.23;21.60;;;14.30;99.90;;;;;;5062747;28;20497;-81
2022/10/15 06:30:32;;;;;;;23.50;19.80;;;14.30;99.90;;;;;;5063442;28;20439;-80
2022/10/15 06:33:00;;;;;;;24.03;18.97;;;14.40;99.90;;;;;;5060129;28;20509;-79
2022/10/15 06:35:29;;;;;;;23.77;19.83;;;14.40;99.90;;;;;;5055037;28;20499;-79
2022/10/15 06:37:56;;;;;;;24.57;18.93;;;14.40;99.90;;;;;;5057078;28;20960;-82
2022/10/15 06:40:23;;;;;;;24.60;22.00;;;14.40;99.90;;;;;;5056594;28;20448;-81
2022/10/15 06:42:50;;;;;;;25.50;19.70;;;14.50;99.90;;;;;;5056510;28;20943;-80
2022/10/15 06:45:16;;;;;;;24.03;20.20;;;14.50;99.90;;;;;;5056458;28;20489;-79
2022/10/15 06:47:43;;;;;;;24.30;20.97;;;14.50;99.90;;;;;;5056882;28;20981;-81
2022/10/15 06:50:12;;;;;;;20.90;18.53;;;14.50;99.90;;;;;;5036363;28;20458;-81
2022/10/15 06:52:39;;;;;;;23.57;20.33;;;14.50;99.90;;;;;;5036414;28;20469;-81
2022/10/15 06:55:07;;;;;;;22.50;19.60;;;14.50;99.90;;;;;;5044299;28;20482;-81
2022/10/15 06:57:33;;;;;;;25.20;19.60;;;14.50;99.90;;;;;;5056611;28;20440;-79
2022/10/15 07:00:00;;;;;;;24.20;20.00;;;14.50;99.90;;;;;;5055251;28;20484;-81
2022/10/15 07:02:27;;;;;;;21.30;18.97;;;14.50;99.90;;;;;;5056049;28;20459;-80
2022/10/15 07:04:54;;;;;;;21.80;17.53;;;14.60;99.90;;;;;;5055640;28;20576;-80
2022/10/15 07:07:22;;;;;;;23.83;20.07;;;14.60;99.90;;;;;;5060976;28;20444;-81
2022/10/15 07:09:52;;;;;;;26.80;21.63;;;14.70;99.90;;;;;;5060017;28;20448;-82
2022/10/15 07:12:20;;;;;;;27.33;21.50;;;14.60;99.90;;;;;;5060781;28;20832;-81
2022/10/15 07:14:47;;;;;;;25.03;19.87;;;14.80;99.90;;;;;;5060000;28;20497;-80
2022/10/15 07:17:14;;;;;;;30.90;24.30;;;14.80;99.90;;;;;;5056842;28;20571;-79
2022/10/15 07:19:41;;;;;;;24.83;19.67;;;14.70;99.90;;;;;;5039374;28;20470;-79
2022/10/15 07:22:08;;;;;;;26.80;20.03;;;14.80;99.90;;;;;;5050223;28;20469;-80
2022/10/15 07:24:36;;;;;;;20.73;17.47;;;14.90;99.90;;;;;;5060348;28;20558;-81
2022/10/15 07:27:03;;;;;;;25.57;19.20;;;15.00;99.90;;;;;;5059492;28;20562;-81
2022/10/15 07:29:31;;;;;;;26.67;18.50;;;15.00;99.90;;;;;;5059685;28;20465;-79
2022/10/15 07:31:58;;;;;;;24.80;18.90;;;15.10;99.90;;;;;;5059818;28;20452;-80
2022/10/15 07:34:25;;;;;;;23.70;18.43;;;15.20;99.90;;;;;;5059384;28;20568;-81
2022/10/15 07:36:52;;;;;;;22.93;19.60;;;15.20;99.90;;;;;;5053666;28;21132;-79
2022/10/15 07:39:19;;;;;;;21.83;18.93;;;15.30;99.90;;;;;;5059484;28;20544;-78
2022/10/15 07:41:47;;;;;;;24.20;18.70;;;15.30;99.90;;;;;;5058800;28;20576;-82
2022/10/15 07:44:13;;;;;;;25.40;20.07;;;15.20;99.90;;;;;;5062337;28;20561;-80
2022/10/15 07:46:40;;;;;;;22.30;18.87;;;15.20;99.90;;;;;;5059550;28;20609;-78
2022/10/15 07:49:08;;;;;;;25.87;19.67;;;15.20;99.90;;;;;;5053915;28;20466;-81
2022/10/15 07:51:34;;;;;;;24.90;20.70;;;15.20;99.90;;;;;;5058030;28;20965;-79
2022/10/15 07:54:01;;;;;;;24.93;21.47;;;15.10;99.90;;;;;;5058389;28;20454;-81
2022/10/15 07:56:28;;;;;;;26.93;20.33;;;15.30;99.90;;;;;;5059579;28;20476;-78
2022/10/15 07:58:56;;;;;;;28.80;21.63;;;15.30;99.90;;;;;;5059405;28;20453;-81
2022/10/15 08:01:23;;;;;;;30.40;24.60;;;15.20;99.90;;;;;;5053109;28;20550;-81
2022/10/15 08:03:50;;;;;;;28.07;22.00;;;15.30;99.90;;;;;;5064016;28;20477;-77
2022/10/15 08:06:18;;;;;;;26.30;21.13;;;15.10;99.90;;;;;;5066901;28;20526;-80
2022/10/15 08:08:45;;;;;;;28.23;21.30;;;15.30;99.90;;;;;;5065884;28;20854;-79
2022/10/15 08:11:13;;;;;;;27.90;21.63;;;15.40;99.90;;;;;;5068362;28;20456;-80
2022/10/15 08:13:41;;;;;;;25.17;20.57;;;15.50;99.90;;;;;;5067515;28;20487;-79
2022/10/15 08:16:11;;;;;;;28.93;20.67;;;15.70;99.90;;;;;;5067698;28;20465;-79
2022/10/15 08:18:38;;;;;;;30.80;22.90;;;15.80;99.90;;;;;;5063434;28;20456;-80
2022/10/15 08:21:06;;;;;;;29.40;22.50;;;16.00;99.90;;;;;;5068259;28;20449;-79
2022/10/15 08:23:33;;;;;;;26.13;20.47;;;16.00;99.90;;;;;;5062274;28;20549;-81
2022/10/15 08:26:01;;;;;;;22.67;20.23;;;16.20;99.90;;;;;;5060466;28;20480;-82
2022/10/15 08:28:28;;;;;;;22.67;19.73;;;16.10;99.90;;;;;;5061304;28;20453;-79
2022/10/15 08:30:57;;;;;;;22.60;17.17;;;16.00;99.90;;;;;;5066451;28;20450;-81
2022/10/15 08:33:25;;;;;;;18.97;16.47;;;16.00;99.90;;;;;;5064438;28;20484;-82
2022/10/15 08:35:53;;;;;;;23.70;16.60;;;16.00;99.90;;;;;;5061873;28;20558;-79
2022/10/15 08:38:19;;;;;;;17.53;14.63;;;16.10;99.90;;;;;;5059538;28;20448;-82
2022/10/15 08:40:48;;;;;;;19.60;15.83;;;16.20;99.90;;;;;;5060177;28;20532;-81
2022/10/15 08:43:22;;;;;;;17.77;15.90;;;16.10;99.90;;;;;;5056755;28;20465;-82
2022/10/15 08:45:51;;;;;;;16.57;14.77;;;16.10;99.90;;;;;;5059726;28;20528;-82
2022/10/15 08:48:24;;;;;;;17.23;14.57;;;16.20;99.90;;;;;;5059523;28;20447;-82
2022/10/15 08:50:59;;;;;;;14.93;13.13;;;16.20;99.90;;;;;;5059922;28;20540;-82
2022/10/15 08:53:28;;;;;;;14.30;12.23;;;16.20;99.90;;;;;;5060485;28;20452;-82
2022/10/15 08:55:58;;;;;;;14.20;12.50;;;16.20;99.90;;;;;;5059502;28;20483;-82
2022/10/15 08:58:33;;;;;;;15.40;13.20;;;16.20;99.90;;;;;;5059381;28;20544;-82
2022/10/15 09:01:06;;;;;;;14.10;12.60;;;16.20;99.90;;;;;;5052170;28;20455;-82
2022/10/15 09:03:39;;;;;;;12.80;11.47;;;16.40;99.90;;;;;;5059090;28;20452;-81
2022/10/15 09:06:17;;;;;;;11.33;10.13;;;16.50;99.90;;;;;;5059721;28;20519;-80
2022/10/15 09:08:53;;;;;;;13.33;10.20;;;16.60;99.90;;;;;;5060074;28;20950;-81
2022/10/15 09:11:40;;;;;;;9.23;6.07;;;16.60;99.90;;;;;;5059688;28;20539;-82
2022/10/15 09:14:11;;;;;;;11.97;6.30;;;16.50;99.90;;;;;;5060783;28;20537;-82
2022/10/15 09:16:39;;;;;;;4.70;4.20;;;16.60;99.90;;;;;;5059976;28;20996;-82
2022/10/15 09:19:14;;;;;;;6.20;4.20;;;16.50;99.90;;;;;;5060231;28;20455;-80
2022/10/15 09:21:43;;;;;;;5.77;4.17;;;16.60;99.90;;;;;;5060725;28;20461;-82
2022/10/15 09:24:13;;;;;;;5.60;3.63;;;16.60;99.90;;;;;;5060558;28;20454;-81
2022/10/15 09:26:51;;;;;;;3.23;2.60;;;16.70;99.90;;;;;;5059246;28;20861;-79
2022/10/15 09:29:24;;;;;;;3.37;2.67;;;16.70;99.90;;;;;;5058597;28;20459;-80
2022/10/15 09:31:58;;;;;;;2.70;2.30;;;16.90;99.90;;;;;;5060647;28;20457;-81
2022/10/15 09:34:30;;;;;;;2.30;1.90;;;17.10;99.90;;;;;;5060703;28;20943;-80
2022/10/15 09:37:05;;;;;;;2.40;2.00;;;17.20;99.90;;;;;;5060939;28;20452;-80
2022/10/15 09:39:48;;;;;;;3.47;1.80;;;17.50;99.90;;;;;;5060268;28;20461;-81
2022/10/15 09:42:27;;;;;;;2.00;1.40;;;17.60;99.90;;;;;;5058710;28;20455;-81
2022/10/15 09:44:57;;;;;;;6.33;1.50;;;17.60;99.90;;;;;;5059510;28;20558;-79
2022/10/15 09:47:25;;;;;;;1.77;1.10;;;17.60;99.90;;;;;;5058268;28;20487;-79
2022/10/15 09:49:52;;;;;;;2.13;1.13;;;17.60;99.90;;;;;;5058681;28;20448;-81
2022/10/15 09:52:29;;;;;;;1.80;1.10;;;17.60;99.90;;;;;;5058590;28;20459;-80
2022/10/15 09:55:06;;;;;;;1.83;1.07;;;17.60;99.90;;;;;;5058147;28;20991;-80
2022/10/15 09:57:36;;;;;;;1.87;1.10;;;17.70;99.90;;;;;;5059571;28;20452;-80
2022/10/15 10:00:08;;;;;;;2.47;0.93;;;17.80;99.90;;;;;;5060438;28;20538;-81
2022/10/15 10:02:35;;;;;;;1.90;1.20;;;17.80;99.90;;;;;;5087667;22;20508;-91
2022/10/15 10:05:20;;;;;;;2.23;0.70;;;18.10;99.90;;;;;;5074185;28;20454;-87
2022/10/15 10:07:48;;;;;;;2.37;0.70;;;18.10;99.90;;;;;;5053672;28;20483;-87
2022/10/15 10:10:24;;;;;;;3.23;0.83;;;18.20;99.90;;;;;;5069550;28;20461;-87
2022/10/15 10:12:55;;;;;;;1.50;0.80;;;18.30;99.90;;;;;;5072282;28;20471;-88
2022/10/15 10:15:32;;;;;;;1.77;0.80;;;18.30;99.90;;;;;;5073081;28;20441;-86
2022/10/15 10:17:59;;;;;;;2.43;1.00;;;18.30;99.90;;;;;;5087850;28;20535;-88
2022/10/15 10:20:27;;;;;;;1.97;1.10;;;18.30;99.90;;;;;;5072701;28;20454;-87
2022/10/15 10:23:04;;;;;;;1.60;0.70;;;18.30;99.90;;;;;;5072825;28;20547;-86
2022/10/15 10:25:34;;;;;;;2.87;0.90;;;18.30;99.90;;;;;;5072440;28;20455;-86
2022/10/15 10:28:16;;;;;;;1.60;0.83;;;18.40;99.90;;;;;;5072317;28;20563;-88
2022/10/15 10:31:02;;;;;;;3.40;0.87;;;18.50;99.90;;;;;;5073237;28;20520;-87
2022/10/15 10:33:34;;;;;;;1.80;0.80;;;18.80;99.90;;;;;;5055603;28;20941;-88
2022/10/15 10:36:01;;;;;;;4.37;0.90;;;18.90;99.90;;;;;;5072716;28;21028;-87
2022/10/15 10:38:33;;;;;;;1.60;0.80;;;18.80;99.90;;;;;;5072486;28;20541;-86
2022/10/15 10:41:05;;;;;;;2.10;0.70;;;18.80;99.90;;;;;;5072070;28;20992;-86
2022/10/15 10:43:34;;;;;;;1.87;0.80;;;18.80;99.90;;;;;;5072113;28;21022;-87
2022/10/15 10:46:03;;;;;;;1.80;0.93;;;18.60;99.90;;;;;;5072477;28;20464;-86
2022/10/15 10:48:39;;;;;;;2.50;0.70;;;18.70;99.90;;;;;;5071345;28;20463;-86
2022/10/15 10:51:09;;;;;;;2.30;0.67;;;18.70;99.90;;;;;;5070886;28;20450;-86
2022/10/15 10:53:47;;;;;;;1.60;0.80;;;18.70;99.90;;;;;;5072322;28;20463;-86
2022/10/15 10:56:14;;;;;;;1.50;0.80;;;18.90;99.90;;;;;;5054757;28;20451;-86
2022/10/15 10:58:42;;;;;;;1.50;0.70;;;19.10;99.90;;;;;;5072724;28;20477;-86
2022/10/15 11:01:12;;;;;;;1.50;0.70;;;19.20;99.90;;;;;;5074920;28;20453;-87
2022/10/15 11:03:41;;;;;;;2.00;0.80;;;19.10;99.90;;;;;;5075818;28;20829;-86
2022/10/15 11:06:34;;;;;;;1.87;0.70;;;19.00;99.90;;;;;;5077610;28;20539;-87
2022/10/15 11:09:14;;;;;;;2.07;0.70;;;18.80;99.90;;;;;;5074356;28;20825;-89
2022/10/15 11:11:52;;;;;;;2.63;0.80;;;18.60;99.90;;;;;;5073666;28;20555;-88
2022/10/15 11:14:28;;;;;;;1.50;0.80;;;18.50;99.90;;;;;;5074140;28;20447;-88
2022/10/15 11:17:05;;;;;;;1.40;0.70;;;18.50;99.90;;;;;;5075186;28;20455;-88
2022/10/15 11:19:38;;;;;;;2.60;0.90;;;18.40;99.90;;;;;;5087776;28;20478;-90
2022/10/15 11:22:23;;;;;;;2.33;0.80;;;18.20;99.90;;;;;;5093646;28;20531;-89
2022/10/15 11:25:02;;;;;;;1.63;0.80;;;18.10;99.90;;;;;;5089828;28;20463;-87
2022/10/15 11:27:51;;;;;;;1.80;0.80;;;18.10;99.90;;;;;;5073550;28;20484;-88
2022/10/15 11:30:34;;;;;;;2.17;0.83;;;18.10;99.90;;;;;;5071954;28;20537;-89
2022/10/15 11:33:16;;;;;;;1.50;0.70;;;18.00;99.90;;;;;;5072462;28;21047;-88
2022/10/15 11:35:48;;;;;;;1.80;0.77;;;18.20;99.90;;;;;;5072412;28;21041;-87
2022/10/15 11:38:24;;;;;;;2.17;1.03;;;18.10;99.90;;;;;;5072147;28;20453;-89
2022/10/15 11:41:19;;;;;;;2.27;0.70;;;18.00;99.90;;;;;;5073313;28;20493;-88
2022/10/15 11:44:00;;;;;;;1.57;0.90;;;18.20;99.90;;;;;;5068233;28;20537;-88
2022/10/15 11:46:35;;;;;;;2.27;0.70;;;18.30;99.90;;;;;;5054659;28;20559;-88
2022/10/15 11:49:16;;;;;;;1.70;0.97;;;18.40;99.90;;;;;;5066247;28;20462;-88
2022/10/15 11:52:02;;;;;;;1.73;0.80;;;18.40;99.90;;;;;;5072242;28;20509;-88
2022/10/15 11:54:37;;;;;;;1.60;0.80;;;18.40;99.90;;;;;;5077089;28;20875;-89
2022/10/15 11:57:10;;;;;;;2.00;0.90;;;18.40;99.90;;;;;;5077043;28;20510;-87
2022/10/15 11:59:45;;;;;;;1.70;0.80;;;18.70;99.90;;;;;;5079472;28;20529;-91
2022/10/15 12:02:16;;;;;;;1.50;0.70;;;18.60;99.90;;;;;;5101498;28;20460;-90
2022/10/15 12:04:46;;;;;;;1.60;0.87;;;18.60;99.90;;;;;;5084330;28;20436;-87
2022/10/15 12:07:18;;;;;;;1.60;0.80;;;18.60;99.90;;;;;;5075386;28;20571;-89
2022/10/15 12:09:50;;;;;;;1.50;0.80;;;18.50;99.90;;;;;;5077371;28;20956;-87
2022/10/15 12:12:28;;;;;;;1.50;0.80;;;18.50;99.90;;;;;;5075976;28;20472;-85
2022/10/15 12:15:12;;;;;;;1.87;1.20;;;18.40;99.90;;;;;;5075383;28;20453;-88
2022/10/15 12:17:46;;;;;;;1.93;1.13;;;18.20;99.90;;;;;;5074581;28;20535;-88
2022/10/15 12:20:15;;;;;;;1.93;0.90;;;18.30;99.90;;;;;;5074629;28;21175;-87
2022/10/15 12:22:54;;;;;;;4.13;1.03;;;18.40;99.90;;;;;;5075130;28;20456;-86
2022/10/15 12:25:45;;;;;;;3.83;0.90;;;18.40;99.90;;;;;;5075815;28;20452;-87
2022/10/15 12:28:22;;;;;;;3.83;0.90;;;18.40;99.90;;;;;;5075003;28;20479;-86
2022/10/15 12:30:58;;;;;;;2.37;0.87;;;18.30;99.90;;;;;;5075249;28;20470;-89
2022/10/15 12:33:32;;;;;;;2.40;0.90;;;18.30;99.90;;;;;;5074874;28;20483;-87
2022/10/15 12:36:01;;;;;;;1.43;0.70;;;18.40;99.90;;;;;;5074527;28;20442;-86
2022/10/15 12:38:34;;;;;;;1.80;0.80;;;19.10;99.90;;;;;;5074624;28;20439;-86
2022/10/15 12:41:04;;;;;;;3.50;1.10;;;19.60;99.90;;;;;;5075480;28;20466;-85
2022/10/15 12:43:35;;;;;;;1.70;0.87;;;19.90;99.90;;;;;;5075339;28;20493;-86
2022/10/15 12:46:04;;;;;;;4.20;1.07;;;19.80;99.90;;;;;;5074839;28;20461;-86
2022/10/15 12:48:38;;;;;;;3.07;1.03;;;19.70;99.90;;;;;;5076189;28;20497;-85
2022/10/15 12:51:38;;;;;;;1.80;0.83;;;19.60;99.90;;;;;;5074661;28;20450;-85